createdAt,value
2022-10-22T00:02:07.589Z,6.45
2022-10-22T00:04:41.154Z,6.80
2022-10-22T00:07:14.723Z,6.13
2022-10-22T00:09:48.247Z,5.60
2022-10-22T00:12:22.105Z,5.32
2022-10-22T00:14:55.334Z,4.38
2022-10-22T00:17:30.271Z,4.20
2022-10-22T00:20:03.561Z,4.22
2022-10-22T00:22:37.161Z,3.95
2022-10-22T00:25:10.617Z,3.42
2022-10-22T00:27:44.329Z,3.13
2022-10-22T00:30:17.903Z,3.63
2022-10-22T00:32:52.666Z,4.05
2022-10-22T00:35:26.090Z,3.92
2022-10-22T00:37:59.475Z,4.15
2022-10-22T00:40:32.799Z,4.10
2022-10-22T00:43:06.231Z,5.72
2022-10-22T00:45:39.475Z,6.47
2022-10-22T00:48:16.533Z,6.30
2022-10-22T00:50:55.578Z,5.32
2022-10-22T00:53:34.006Z,5.90
2022-10-22T00:56:08.772Z,6.85
2022-10-22T00:58:47.552Z,6.03
2022-10-22T01:01:25.002Z,6.47
2022-10-22T01:04:00.515Z,5.53
2022-10-22T01:06:35.068Z,5.68
2022-10-22T01:09:16.963Z,5.15
2022-10-22T01:11:59.435Z,5.35
2022-10-22T01:14:41.054Z,6.30
2022-10-22T01:17:23.519Z,5.32
2022-10-22T01:22:40.568Z,4.85
2022-10-22T01:25:20.929Z,5.15
2022-10-22T01:28:04.008Z,4.47
2022-10-22T01:30:40.717Z,5.13
2022-10-22T01:33:16.543Z,6.00
2022-10-22T01:35:50.533Z,5.45
2022-10-22T01:38:26.124Z,5.28
2022-10-22T01:41:00.844Z,4.40
2022-10-22T01:43:34.257Z,5.20
2022-10-22T01:46:11.875Z,4.93
2022-10-22T01:49:00.045Z,4.90
2022-10-22T01:51:45.494Z,5.00
2022-10-22T01:54:28.220Z,4.50
2022-10-22T01:59:51.962Z,4.03
2022-10-22T02:02:40.791Z,3.70
2022-10-22T02:05:19.647Z,3.75
2022-10-22T02:07:56.764Z,3.75
2022-10-22T02:10:31.709Z,4.57
2022-10-22T02:13:09.470Z,4.13
2022-10-22T02:15:46.346Z,4.78
2022-10-22T02:18:24.035Z,3.92
2022-10-22T02:20:58.521Z,3.95
2022-10-22T02:23:32.014Z,4.07
2022-10-22T02:26:11.396Z,3.88
2022-10-22T02:28:51.598Z,3.65
2022-10-22T02:31:28.856Z,3.53
2022-10-22T02:34:09.156Z,3.72
2022-10-22T02:36:46.791Z,4.68
2022-10-22T02:39:23.299Z,4.18
2022-10-22T02:41:58.072Z,4.00
2022-10-22T02:44:31.812Z,3.97
2022-10-22T02:47:05.874Z,4.35
2022-10-22T02:49:40.498Z,3.95
2022-10-22T02:52:14.064Z,3.33
2022-10-22T02:54:47.329Z,4.40
2022-10-22T02:59:59.089Z,4.20
2022-10-22T03:02:32.673Z,3.28
2022-10-22T03:05:08.305Z,3.70
2022-10-22T03:07:42.073Z,4.05
2022-10-22T03:10:15.869Z,3.60
2022-10-22T03:12:49.407Z,4.13
2022-10-22T03:15:22.917Z,3.80
2022-10-22T03:17:56.151Z,4.25
2022-10-22T03:20:31.114Z,4.15
2022-10-22T03:23:04.869Z,4.25
2022-10-22T03:25:41.060Z,3.92
2022-10-22T03:28:16.497Z,3.58
2022-10-22T03:30:49.914Z,4.43
2022-10-22T03:33:23.926Z,4.78
2022-10-22T03:35:58.695Z,3.90
2022-10-22T03:38:32.642Z,4.00
2022-10-22T03:41:06.652Z,5.22
2022-10-22T03:43:41.029Z,4.95
2022-10-22T03:46:14.254Z,5.03
2022-10-22T03:48:48.172Z,4.05
2022-10-22T03:51:22.810Z,5.15
2022-10-22T03:53:56.421Z,3.90
2022-10-22T03:56:30.139Z,3.90
2022-10-22T03:59:03.854Z,4.78
2022-10-22T04:01:37.335Z,3.70
2022-10-22T04:04:10.641Z,4.15
2022-10-22T04:06:45.414Z,4.43
2022-10-22T04:09:18.707Z,3.95
2022-10-22T04:11:52.317Z,4.43
2022-10-22T04:14:25.805Z,5.05
2022-10-22T04:16:59.300Z,4.53
2022-10-22T04:19:32.732Z,3.70
2022-10-22T04:22:07.538Z,4.25
2022-10-22T04:24:40.845Z,6.43
2022-10-22T04:27:14.273Z,6.15
2022-10-22T04:29:47.682Z,4.75
2022-10-22T04:32:20.912Z,4.55
2022-10-22T04:34:54.244Z,4.60
2022-10-22T04:37:29.018Z,5.40
2022-10-22T04:40:02.313Z,3.97
2022-10-22T04:42:35.720Z,4.32
2022-10-22T04:45:10.347Z,5.18
2022-10-22T04:47:43.793Z,4.43
2022-10-22T04:50:17.694Z,5.68
2022-10-22T04:52:52.326Z,4.55
2022-10-22T04:55:25.790Z,5.03
2022-10-22T04:57:59.040Z,4.20
2022-10-22T05:00:32.620Z,4.13
2022-10-22T05:03:05.863Z,4.38
2022-10-22T05:05:39.078Z,6.78
2022-10-22T05:08:14.065Z,4.32
2022-10-22T05:10:47.298Z,5.38
2022-10-22T05:13:20.710Z,5.22
2022-10-22T05:15:54.388Z,6.35
2022-10-22T05:18:27.623Z,4.97
2022-10-22T05:21:01.062Z,5.05
2022-10-22T05:23:35.688Z,6.43
2022-10-22T05:26:10.825Z,5.63
2022-10-22T05:28:44.361Z,5.32
2022-10-22T05:31:18.797Z,5.00
2022-10-22T05:33:52.217Z,5.32
2022-10-22T05:36:26.013Z,5.75
2022-10-22T05:39:00.798Z,5.80
2022-10-22T05:41:35.728Z,5.65
2022-10-22T05:44:09.042Z,6.68
2022-10-22T05:46:43.513Z,6.30
2022-10-22T05:49:16.975Z,5.97
2022-10-22T05:51:50.239Z,5.90
2022-10-22T05:54:24.830Z,8.07
2022-10-22T05:56:58.094Z,6.45
2022-10-22T05:59:31.380Z,9.93
2022-10-22T06:02:04.739Z,9.25
2022-10-22T06:04:38.037Z,8.32
2022-10-22T06:07:14.830Z,6.82
2022-10-22T06:09:50.353Z,5.63
2022-10-22T06:12:23.666Z,7.32
2022-10-22T06:14:57.159Z,6.22
2022-10-22T06:17:30.747Z,7.18
2022-10-22T06:22:38.427Z,11.98
2022-10-22T06:25:14.510Z,12.00
2022-10-22T06:27:50.910Z,8.95
2022-10-22T06:30:24.335Z,10.13
2022-10-22T06:32:57.853Z,7.72
2022-10-22T06:35:31.328Z,6.88
2022-10-22T06:38:04.586Z,8.07
2022-10-22T06:40:39.236Z,6.57
2022-10-22T06:43:12.930Z,7.43
2022-10-22T06:45:46.141Z,7.85
2022-10-22T06:48:19.705Z,8.98
2022-10-22T06:50:53.116Z,11.70
2022-10-22T06:53:26.426Z,13.63
2022-10-22T06:56:05.563Z,21.40
2022-10-22T06:58:39.031Z,16.95
2022-10-22T07:01:14.027Z,16.55
2022-10-22T07:03:47.865Z,14.50
2022-10-22T07:06:22.520Z,14.20
2022-10-22T07:08:56.756Z,13.13
2022-10-22T07:11:33.837Z,11.27
2022-10-22T07:14:07.142Z,11.38
2022-10-22T07:16:42.143Z,10.68
2022-10-22T07:19:15.970Z,9.73
2022-10-22T07:21:49.257Z,9.88
2022-10-22T07:24:22.595Z,8.70
2022-10-22T07:26:57.559Z,10.25
2022-10-22T07:29:30.895Z,9.88
2022-10-22T07:32:04.319Z,8.60
2022-10-22T07:34:39.441Z,9.68
2022-10-22T07:37:15.082Z,10.38
2022-10-22T07:39:48.314Z,10.02
2022-10-22T07:42:23.063Z,9.02
2022-10-22T07:44:56.297Z,9.00
2022-10-22T07:47:29.847Z,8.00
2022-10-22T07:50:03.095Z,6.50
2022-10-22T07:52:36.375Z,6.53
2022-10-22T07:55:10.232Z,6.10
2022-10-22T07:57:44.870Z,8.20
2022-10-22T08:00:20.520Z,7.13
2022-10-22T08:02:56.409Z,7.70
2022-10-22T08:05:29.644Z,7.07
2022-10-22T08:08:02.957Z,8.18
2022-10-22T08:10:36.244Z,5.38
2022-10-22T08:13:10.857Z,5.40
2022-10-22T08:15:46.871Z,6.18
2022-10-22T08:18:20.197Z,4.93
2022-10-22T08:20:53.488Z,4.45
2022-10-22T08:23:28.716Z,4.63
2022-10-22T08:26:03.073Z,4.38
2022-10-22T08:28:38.010Z,5.03
2022-10-22T08:31:12.315Z,4.95
2022-10-22T08:33:45.598Z,5.07
2022-10-22T08:36:18.836Z,6.68
2022-10-22T08:38:52.125Z,6.22
2022-10-22T08:41:25.653Z,6.28
2022-10-22T08:44:24.145Z,4.85
2022-10-22T08:47:12.440Z,4.72
2022-10-22T08:49:46.242Z,4.60
2022-10-22T08:52:20.873Z,4.57
2022-10-22T08:54:56.064Z,5.00
2022-10-22T08:57:48.697Z,4.28
2022-10-22T09:00:34.901Z,4.18
2022-10-22T09:03:27.009Z,3.75
2022-10-22T09:06:08.124Z,4.33
2022-10-22T09:08:44.217Z,4.07
2022-10-22T09:11:25.167Z,4.38
2022-10-22T09:13:59.620Z,4.57
2022-10-22T09:16:40.070Z,3.35
2022-10-22T09:19:22.867Z,4.80
2022-10-22T09:24:38.468Z,3.47
2022-10-22T09:27:14.025Z,3.53
2022-10-22T09:29:48.834Z,4.38
2022-10-22T09:32:23.914Z,4.15
2022-10-22T09:34:58.850Z,4.43
2022-10-22T09:37:32.289Z,3.78
2022-10-22T09:40:07.177Z,4.57
2022-10-22T09:42:40.740Z,4.20
2022-10-22T09:45:21.188Z,3.80
2022-10-22T09:48:11.471Z,3.97
2022-10-22T09:50:47.315Z,4.05
2022-10-22T09:53:22.662Z,3.80
2022-10-22T09:55:58.498Z,3.83
2022-10-22T09:58:42.082Z,4.70
2022-10-22T10:01:19.665Z,5.93
2022-10-22T10:03:54.632Z,4.82
2022-10-22T10:06:27.990Z,4.65
2022-10-22T10:09:03.256Z,5.45
2022-10-22T10:11:44.517Z,5.70
2022-10-22T10:14:22.659Z,4.88
2022-10-22T10:17:01.454Z,5.35
2022-10-22T10:19:53.098Z,4.43
2022-10-22T10:22:40.709Z,5.07
2022-10-22T10:25:33.602Z,4.53
2022-10-22T10:28:21.557Z,4.57
2022-10-22T10:31:03.876Z,4.32
2022-10-22T10:33:48.172Z,4.72
2022-10-22T10:36:30.628Z,5.53
2022-10-22T10:39:09.815Z,5.40
2022-10-22T10:41:52.541Z,4.80
2022-10-22T10:47:29.365Z,5.90
2022-10-22T10:50:19.853Z,5.90
2022-10-22T10:53:04.453Z,5.10
2022-10-22T10:55:42.662Z,5.07
2022-10-22T10:58:26.700Z,5.35
2022-10-22T11:01:10.324Z,4.97
2022-10-22T11:04:08.560Z,5.10
2022-10-22T11:06:44.247Z,5.47
2022-10-22T11:09:25.658Z,4.80
2022-10-22T11:12:03.958Z,5.05
2022-10-22T11:14:42.750Z,4.75
2022-10-22T11:17:18.838Z,5.43
2022-10-22T11:20:00.333Z,5.40
2022-10-22T11:22:37.929Z,5.22
2022-10-22T11:25:21.699Z,5.05
2022-10-22T11:28:04.664Z,5.60
2022-10-22T11:30:43.779Z,4.85
2022-10-22T11:33:22.671Z,5.75
2022-10-22T11:35:58.843Z,5.47
2022-10-22T11:38:35.049Z,5.53
2022-10-22T11:41:14.343Z,5.45
2022-10-22T11:44:09.554Z,5.70
2022-10-22T11:46:54.752Z,5.70
2022-10-22T11:49:42.211Z,5.63
2022-10-22T11:52:28.312Z,5.72
2022-10-22T11:55:04.004Z,6.03
2022-10-22T11:57:40.027Z,5.13
2022-10-22T12:00:35.909Z,5.13
2022-10-22T12:03:19.803Z,5.32
2022-10-22T12:06:08.465Z,6.10
2022-10-22T12:08:45.194Z,5.35
2022-10-22T12:11:23.204Z,5.43
2022-10-22T12:14:13.260Z,5.13
2022-10-22T12:16:56.074Z,6.63
2022-10-22T12:19:32.864Z,6.82
2022-10-22T12:22:16.109Z,6.53
2022-10-22T12:24:51.119Z,6.97
2022-10-22T12:27:26.617Z,6.32
2022-10-22T12:30:03.195Z,5.07
2022-10-22T12:32:41.464Z,6.07
2022-10-22T12:35:18.842Z,14.00
2022-10-22T12:37:53.309Z,15.18
2022-10-22T12:40:28.184Z,14.80
2022-10-22T12:43:03.217Z,15.65
2022-10-22T12:45:38.104Z,13.05
2022-10-22T12:48:18.603Z,12.20
2022-10-22T12:50:54.259Z,12.57
2022-10-22T12:53:32.973Z,12.80
2022-10-22T12:56:09.801Z,9.40
2022-10-22T12:58:46.441Z,8.65
2022-10-22T13:01:21.437Z,9.23
2022-10-22T13:04:07.823Z,8.68
2022-10-22T13:06:45.754Z,10.00
2022-10-22T13:09:23.967Z,8.63
2022-10-22T13:12:05.820Z,8.55
2022-10-22T13:14:39.796Z,8.80
2022-10-22T13:17:17.093Z,9.20
2022-10-22T13:20:01.678Z,9.10
2022-10-22T13:22:37.540Z,9.55
2022-10-22T13:25:25.118Z,8.77
2022-10-22T13:28:00.736Z,8.80
2022-10-22T13:30:36.024Z,8.45
2022-10-22T13:33:27.614Z,8.45
2022-10-22T13:36:01.035Z,8.43
2022-10-22T13:38:34.426Z,7.95
2022-10-22T13:41:20.527Z,7.35
2022-10-22T13:43:54.717Z,8.70
2022-10-22T13:46:29.454Z,9.15
2022-10-22T13:49:05.538Z,10.52
2022-10-22T13:51:39.916Z,10.43
2022-10-22T13:54:17.870Z,10.07
2022-10-22T13:56:51.375Z,29.13
2022-10-22T13:59:24.786Z,17.98
2022-10-22T14:01:58.086Z,18.38
2022-10-22T14:04:34.142Z,16.92
2022-10-22T14:07:13.592Z,18.77
2022-10-22T14:09:46.924Z,14.63
2022-10-22T14:12:20.271Z,14.35
2022-10-22T14:14:53.582Z,14.35
2022-10-22T14:17:27.053Z,12.30
2022-10-22T14:20:02.003Z,13.82
2022-10-22T14:22:35.352Z,12.90
2022-10-22T14:25:11.589Z,15.35
2022-10-22T14:27:45.149Z,13.85
2022-10-22T14:30:21.323Z,17.52
2022-10-22T14:32:54.708Z,12.90
2022-10-22T14:35:29.410Z,12.43
2022-10-22T14:38:02.717Z,10.45
2022-10-22T14:40:38.645Z,11.45
2022-10-22T14:43:12.396Z,12.00
2022-10-22T14:45:45.699Z,10.68
2022-10-22T14:50:59.199Z,12.02
2022-10-22T14:53:32.464Z,13.88
2022-10-22T14:56:05.937Z,23.23
2022-10-22T14:58:39.279Z,23.55
2022-10-22T15:01:12.686Z,19.45
2022-10-22T15:03:46.043Z,14.75
2022-10-22T15:06:20.698Z,15.13
2022-10-22T15:08:54.041Z,14.18
2022-10-22T15:11:28.761Z,24.15
2022-10-22T15:14:02.098Z,27.35
2022-10-22T15:16:35.415Z,17.33
2022-10-22T15:19:08.840Z,14.50
2022-10-22T15:21:43.556Z,19.48
2022-10-22T15:24:16.914Z,25.17
2022-10-22T15:26:50.979Z,26.27
2022-10-22T15:29:25.116Z,27.83
2022-10-22T15:31:59.433Z,19.25
2022-10-22T15:34:34.382Z,21.02
2022-10-22T15:37:11.439Z,23.02
2022-10-22T15:39:44.718Z,19.02
2022-10-22T15:42:18.635Z,20.70
2022-10-22T15:44:58.544Z,20.33
2022-10-22T15:47:31.832Z,20.48
2022-10-22T15:50:05.595Z,22.90
2022-10-22T15:52:43.082Z,20.15
2022-10-22T15:55:16.590Z,16.40
2022-10-22T15:57:54.857Z,16.35
2022-10-22T16:00:28.183Z,13.20
2022-10-22T16:03:01.482Z,16.60
2022-10-22T16:05:34.757Z,14.15
2022-10-22T16:08:09.473Z,14.85
2022-10-22T16:10:47.237Z,14.48
2022-10-22T16:13:21.248Z,14.88
2022-10-22T16:15:55.218Z,15.35
2022-10-22T16:18:28.569Z,15.85
2022-10-22T16:21:01.958Z,15.57
2022-10-22T16:23:36.695Z,13.35
2022-10-22T16:26:10.040Z,14.40
2022-10-22T16:28:44.007Z,15.20
2022-10-22T16:31:19.706Z,16.25
2022-10-22T16:33:53.072Z,37.85
2022-10-22T16:36:26.754Z,31.73
2022-10-22T16:39:01.446Z,22.42
2022-10-22T16:41:36.522Z,16.42
2022-10-22T16:44:11.002Z,17.85
2022-10-22T16:46:44.316Z,15.07
2022-10-22T16:49:17.679Z,15.77
2022-10-22T16:51:51.044Z,17.13
2022-10-22T16:54:25.732Z,15.88
2022-10-22T16:56:59.047Z,16.13
2022-10-22T16:59:32.454Z,16.23
2022-10-22T17:02:05.947Z,13.93
2022-10-22T17:04:39.466Z,15.60
2022-10-22T17:07:12.771Z,15.25
2022-10-22T17:09:47.451Z,20.38
2022-10-22T17:12:20.702Z,18.02
2022-10-22T17:14:54.010Z,15.55
2022-10-22T17:17:27.275Z,14.68
2022-10-22T17:20:00.970Z,15.35
2022-10-22T17:22:35.043Z,13.02
2022-10-22T17:25:14.256Z,16.55
2022-10-22T17:27:47.510Z,14.48
2022-10-22T17:30:25.074Z,15.30
2022-10-22T17:33:00.522Z,17.15
2022-10-22T17:35:34.475Z,18.85
2022-10-22T17:38:08.390Z,19.15
2022-10-22T17:40:43.053Z,20.85
2022-10-22T17:43:16.363Z,26.63
2022-10-22T17:45:49.962Z,21.35
2022-10-22T17:48:23.251Z,20.55
2022-10-22T17:50:59.143Z,17.48
2022-10-22T17:53:32.687Z,19.30
2022-10-22T17:56:10.195Z,20.88
2022-10-22T17:58:43.510Z,23.65
2022-10-22T18:01:22.923Z,22.70
2022-10-22T18:03:59.858Z,20.45
2022-10-22T18:06:33.513Z,22.85
2022-10-22T18:09:08.081Z,20.15
2022-10-22T18:11:42.916Z,18.75
2022-10-22T18:14:17.905Z,19.63
2022-10-22T18:16:52.094Z,19.52
2022-10-22T18:19:25.398Z,18.92
2022-10-22T18:21:58.714Z,19.58
2022-10-22T18:24:32.021Z,18.73
2022-10-22T18:27:06.865Z,16.73
2022-10-22T18:29:40.197Z,17.80
2022-10-22T18:32:13.548Z,17.02
2022-10-22T18:34:48.171Z,17.33
2022-10-22T18:37:21.489Z,19.00
2022-10-22T18:39:54.818Z,20.00
2022-10-22T18:42:32.755Z,19.92
2022-10-22T18:45:08.915Z,19.33
2022-10-22T18:47:42.472Z,24.83
2022-10-22T18:50:15.996Z,24.80
2022-10-22T18:52:49.250Z,24.15
2022-10-22T18:55:22.543Z,22.50
2022-10-22T18:57:57.299Z,19.27
2022-10-22T19:00:30.919Z,19.35
2022-10-22T19:03:04.346Z,18.02
2022-10-22T19:05:45.899Z,18.77
2022-10-22T19:08:20.034Z,20.02
2022-10-22T19:10:53.376Z,16.83
2022-10-22T19:13:28.551Z,18.38
2022-10-22T19:16:03.884Z,18.35
2022-10-22T19:18:39.056Z,17.85
2022-10-22T19:21:13.114Z,17.98
2022-10-22T19:23:46.653Z,18.00
2022-10-22T19:26:21.542Z,17.27
2022-10-22T19:28:57.268Z,18.58
2022-10-22T19:31:31.429Z,17.17
2022-10-22T19:34:04.859Z,16.80
2022-10-22T19:36:38.158Z,16.02
2022-10-22T19:39:11.653Z,17.02
2022-10-22T19:41:45.092Z,15.82
2022-10-22T19:44:19.887Z,19.38
2022-10-22T19:46:53.346Z,17.13
2022-10-22T19:49:26.634Z,16.00
2022-10-22T19:51:59.966Z,18.38
2022-10-22T19:54:33.298Z,16.45
2022-10-22T19:57:06.592Z,18.35
2022-10-22T19:59:42.650Z,17.35
2022-10-22T20:02:17.713Z,15.32
2022-10-22T20:04:50.990Z,18.08
2022-10-22T20:07:24.266Z,16.65
2022-10-22T20:09:57.509Z,15.88
2022-10-22T20:12:30.853Z,19.02
2022-10-22T20:15:06.151Z,18.42
2022-10-22T20:17:39.779Z,20.45
2022-10-22T20:20:13.498Z,19.10
2022-10-22T20:22:46.786Z,19.02
2022-10-22T20:25:20.074Z,20.95
2022-10-22T20:27:53.358Z,21.52
2022-10-22T20:30:28.072Z,22.00
2022-10-22T20:33:01.484Z,20.90
2022-10-22T20:35:34.828Z,19.35
2022-10-22T20:38:12.171Z,17.27
2022-10-22T20:40:45.465Z,19.83
2022-10-22T20:43:18.766Z,17.50
2022-10-22T20:45:53.396Z,18.60
2022-10-22T20:48:29.591Z,17.88
2022-10-22T20:51:04.741Z,16.48
2022-10-22T20:53:38.253Z,16.67
2022-10-22T20:56:12.086Z,17.30
2022-10-22T20:58:48.747Z,17.15
2022-10-22T21:01:24.435Z,16.20
2022-10-22T21:03:57.730Z,18.20
2022-10-22T21:06:31.407Z,17.42
2022-10-22T21:09:05.919Z,16.90
2022-10-22T21:11:41.070Z,21.92
2022-10-22T21:14:16.619Z,19.88
2022-10-22T21:16:52.937Z,18.73
2022-10-22T21:19:26.694Z,18.55
2022-10-22T21:21:59.968Z,19.25
2022-10-22T21:24:33.548Z,20.08
2022-10-22T21:27:07.500Z,20.38
2022-10-22T21:29:40.940Z,20.05
2022-10-22T21:32:15.583Z,21.90
2022-10-22T21:34:49.187Z,19.05
2022-10-22T21:37:23.276Z,18.95
2022-10-22T21:39:56.824Z,19.63
2022-10-22T21:42:30.326Z,20.05
2022-10-22T21:45:03.635Z,25.05
2022-10-22T21:47:38.736Z,19.70
2022-10-22T21:50:12.260Z,21.27
2022-10-22T21:52:45.510Z,20.42
2022-10-22T21:55:19.119Z,20.45
2022-10-22T21:57:52.414Z,13.75
2022-10-22T22:00:25.907Z,13.50
2022-10-22T22:03:00.648Z,9.02
2022-10-22T22:05:34.314Z,9.15
2022-10-22T22:08:07.778Z,9.05
2022-10-22T22:13:17.295Z,9.75
2022-10-22T22:15:50.749Z,18.48
2022-10-22T22:18:25.417Z,18.67
2022-10-22T22:21:00.004Z,17.00
2022-10-22T22:23:33.588Z,17.85
2022-10-22T22:26:07.953Z,20.83
2022-10-22T22:28:41.894Z,20.70
2022-10-22T22:31:17.003Z,19.10
2022-10-22T22:33:52.236Z,21.05
2022-10-22T22:36:25.682Z,17.20
2022-10-22T22:38:58.927Z,19.05
2022-10-22T22:41:32.450Z,16.88
2022-10-22T22:44:06.307Z,15.95
2022-10-22T22:46:39.950Z,15.95
2022-10-22T22:49:15.522Z,15.48
2022-10-22T22:51:50.618Z,14.65
2022-10-22T22:54:23.954Z,11.85
2022-10-22T22:56:57.465Z,12.95
2022-10-22T22:59:30.706Z,19.65
2022-10-22T23:02:04.142Z,15.48
2022-10-22T23:04:38.763Z,12.32
2022-10-22T23:07:12.859Z,14.20
2022-10-22T23:09:46.274Z,13.60
2022-10-22T23:12:19.914Z,9.25
2022-10-22T23:14:53.374Z,6.93
2022-10-22T23:17:26.738Z,7.20
2022-10-22T23:20:01.472Z,6.07
2022-10-22T23:22:34.979Z,5.03
2022-10-22T23:25:09.093Z,6.38
2022-10-22T23:27:42.833Z,8.18
2022-10-22T23:30:16.578Z,8.88
2022-10-22T23:32:49.883Z,8.52
2022-10-22T23:35:24.738Z,9.75
2022-10-22T23:37:58.317Z,7.13
2022-10-22T23:40:31.895Z,6.25
2022-10-22T23:43:06.002Z,7.57
2022-10-22T23:45:39.464Z,11.95
2022-10-22T23:48:12.868Z,8.43
2022-10-22T23:50:48.267Z,7.93
2022-10-22T23:53:21.570Z,6.25
2022-10-22T23:55:54.836Z,6.18
2022-10-22T23:58:28.409Z,5.95
